Time;durP1;ratioP1;P1;durP2;ratioP2;P2;SDS_P1;SDS_P2;PMS_P1;PMS_P2;Temp;Humidity;BMP_temperature;BMP_pressure;BME280_temperature;BME280_humidity;BME280_pressure;Samples;Min_cycle;Max_cycle;Signal;HPM_P1;HPM_P2
2021/05/12 00:00:27;;;;;;;;;2.25;0.75;;;;;;;;5030928;28;9778;-81
2021/05/12 00:02:54;;;;;;;;;0.00;0.00;;;;;;;;5018411;28;10064;-80
2021/05/12 00:05:22;;;;;;;;;0.00;0.00;;;;;;;;5023508;28;10986;-81
2021/05/12 00:07:49;;;;;;;;;0.00;0.00;;;;;;;;5020697;28;10099;-81
2021/05/12 00:10:18;;;;;;;;;0.00;0.00;;;;;;;;5017719;28;9977;-81
2021/05/12 00:12:45;;;;;;;;;0.00;0.00;;;;;;;;5014233;28;9870;-80
2021/05/12 00:15:16;;;;;;;;;0.50;0.00;;;;;;;;5020245;28;9883;-81
2021/05/12 00:17:45;;;;;;;;;0.00;0.00;;;;;;;;5030093;28;9935;-80
2021/05/12 00:20:16;;;;;;;;;0.25;0.00;;;;;;;;5024283;28;9972;-80
2021/05/12 00:22:48;;;;;;;;;0.00;0.00;;;;;;;;5020805;28;10028;-80
2021/05/12 00:25:18;;;;;;;;;0.00;0.00;;;;;;;;5011390;28;9958;-81
2021/05/12 00:27:45;;;;;;;;;0.00;0.00;;;;;;;;5023873;28;9888;-81
2021/05/12 00:30:14;;;;;;;;;0.00;0.00;;;;;;;;5016845;28;9996;-80
2021/05/12 00:32:42;;;;;;;;;1.00;1.00;;;;;;;;5038575;28;10004;-80
2021/05/12 00:35:10;;;;;;;;;1.00;1.00;;;;;;;;5035370;28;10031;-80
2021/05/12 00:37:37;;;;;;;;;1.00;0.00;;;;;;;;5034911;28;9965;-81
2021/05/12 00:40:05;;;;;;;;;0.75;0.75;;;;;;;;5038755;28;9939;-81
2021/05/12 00:42:34;;;;;;;;;1.75;0.00;;;;;;;;5039263;28;10123;-80
2021/05/12 00:45:04;;;;;;;;;0.00;0.00;;;;;;;;5037956;28;10114;-80
2021/05/12 00:47:32;;;;;;;;;0.00;0.00;;;;;;;;5039835;28;9948;-79
2021/05/12 00:50:00;;;;;;;;;0.00;0.00;;;;;;;;5035343;28;10133;-79
2021/05/12 00:52:27;;;;;;;;;0.00;0.00;;;;;;;;5032954;28;10071;-80
2021/05/12 00:54:54;;;;;;;;;0.00;0.00;;;;;;;;5041021;28;10046;-80
2021/05/12 00:57:21;;;;;;;;;1.50;0.00;;;;;;;;5038920;28;10125;-80
2021/05/12 00:59:51;;;;;;;;;1.00;1.00;;;;;;;;5035778;28;10190;-80
2021/05/12 01:02:18;;;;;;;;;0.00;0.00;;;;;;;;5038708;28;10060;-80
2021/05/12 01:04:45;;;;;;;;;0.75;0.75;;;;;;;;5037719;28;10117;-81
2021/05/12 01:07:13;;;;;;;;;0.00;0.00;;;;;;;;5032398;28;10130;-81
2021/05/12 01:09:40;;;;;;;;;0.00;0.00;;;;;;;;5034615;28;10204;-80
2021/05/12 01:12:07;;;;;;;;;0.00;0.00;;;;;;;;5042871;28;10673;-80
2021/05/12 01:14:34;;;;;;;;;0.00;0.00;;;;;;;;5020328;28;10175;-80
2021/05/12 01:17:02;;;;;;;;;0.50;0.50;;;;;;;;5042299;28;10302;-80
2021/05/12 01:19:29;;;;;;;;;0.25;0.25;;;;;;;;5032094;28;10093;-81
2021/05/12 01:21:58;;;;;;;;;1.00;0.00;;;;;;;;5042300;28;10192;-80
2021/05/12 01:24:25;;;;;;;;;2.00;0.00;;;;;;;;5042300;28;10326;-80
2021/05/12 01:26:51;;;;;;;;;1.50;0.00;;;;;;;;5037373;28;10179;-80
2021/05/12 01:29:18;;;;;;;;;0.00;0.00;;;;;;;;5030831;28;10326;-80
2021/05/12 01:31:46;;;;;;;;;0.00;0.00;;;;;;;;5037365;28;10214;-80
2021/05/12 01:34:15;;;;;;;;;0.75;0.75;;;;;;;;5038553;28;10154;-80
2021/05/12 01:36:43;;;;;;;;;1.00;0.00;;;;;;;;5036859;28;10277;-80
2021/05/12 01:39:11;;;;;;;;;0.25;0.25;;;;;;;;5034922;28;10290;-80
2021/05/12 01:41:38;;;;;;;;;1.25;0.00;;;;;;;;5031250;28;10183;-79
2021/05/12 01:44:09;;;;;;;;;0.00;0.00;;;;;;;;5040937;28;10167;-79
2021/05/12 01:46:36;;;;;;;;;0.75;0.75;;;;;;;;5038229;28;10178;-80
2021/05/12 01:49:03;;;;;;;;;1.00;1.00;;;;;;;;5038018;28;10173;-80
2021/05/12 01:51:30;;;;;;;;;0.25;0.25;;;;;;;;5033340;28;10193;-80
2021/05/12 01:53:57;;;;;;;;;0.00;0.00;;;;;;;;5036471;28;10177;-82
2021/05/12 01:56:26;;;;;;;;;0.00;0.00;;;;;;;;5037205;28;10267;-81
2021/05/12 01:58:52;;;;;;;;;0.00;0.00;;;;;;;;5037889;28;10224;-82
2021/05/12 02:01:19;;;;;;;;;1.00;0.00;;;;;;;;5029407;28;9981;-82
2021/05/12 02:03:47;;;;;;;;;0.00;0.00;;;;;;;;5034116;28;10204;-81
2021/05/12 02:06:14;;;;;;;;;1.00;1.00;;;;;;;;5034394;28;10953;-81
2021/05/12 02:08:41;;;;;;;;;0.00;0.00;;;;;;;;5038314;28;10184;-80
2021/05/12 02:11:08;;;;;;;;;0.25;0.25;;;;;;;;5030700;28;10306;-81
2021/05/12 02:13:38;;;;;;;;;0.25;0.00;;;;;;;;5069817;28;10234;-79
2021/05/12 02:16:09;;;;;;;;;1.00;1.00;;;;;;;;5038854;28;10182;-82
2021/05/12 02:18:36;;;;;;;;;2.00;0.00;;;;;;;;5018419;28;10115;-82
2021/05/12 02:21:04;;;;;;;;;0.75;0.75;;;;;;;;5030878;28;10269;-82
2021/05/12 02:23:31;;;;;;;;;1.25;1.25;;;;;;;;5031086;28;10384;-82
2021/05/12 02:25:59;;;;;;;;;3.00;2.00;;;;;;;;5027821;28;10343;-82
2021/05/12 02:28:27;;;;;;;;;0.50;0.50;;;;;;;;5041505;28;10271;-82
2021/05/12 02:30:55;;;;;;;;;0.50;0.50;;;;;;;;5045646;28;10219;-81
2021/05/12 02:33:22;;;;;;;;;1.50;1.50;;;;;;;;5042365;28;11581;-81
2021/05/12 02:35:49;;;;;;;;;3.00;0.00;;;;;;;;5032925;28;10306;-81
2021/05/12 02:38:16;;;;;;;;;0.75;0.75;;;;;;;;5038862;28;10182;-80
2021/05/12 02:40:43;;;;;;;;;0.00;0.00;;;;;;;;5027840;28;10260;-81
2021/05/12 02:43:10;;;;;;;;;3.00;1.25;;;;;;;;5040264;28;10333;-81
2021/05/12 02:45:37;;;;;;;;;2.25;1.00;;;;;;;;5036229;28;11079;-83
2021/05/12 02:48:06;;;;;;;;;2.00;0.00;;;;;;;;5045344;28;10178;-81
2021/05/12 02:50:34;;;;;;;;;0.50;0.50;;;;;;;;5039097;28;10097;-81
2021/05/12 02:53:01;;;;;;;;;1.75;1.00;;;;;;;;5037072;28;10167;-80
2021/05/12 02:55:29;;;;;;;;;1.00;0.00;;;;;;;;5041132;28;9960;-81
2021/05/12 02:57:57;;;;;;;;;0.00;0.00;;;;;;;;5040362;28;10646;-80
2021/05/12 03:00:27;;;;;;;;;0.50;0.50;;;;;;;;5038816;28;9852;-80
2021/05/12 03:02:54;;;;;;;;;0.00;0.00;;;;;;;;5026969;28;10053;-81
2021/05/12 03:05:22;;;;;;;;;0.00;0.00;;;;;;;;5036312;28;9866;-81
2021/05/12 03:07:49;;;;;;;;;0.50;0.50;;;;;;;;5040702;28;10169;-81
2021/05/12 03:10:18;;;;;;;;;0.00;0.00;;;;;;;;5046524;28;10107;-80
2021/05/12 03:12:45;;;;;;;;;0.00;0.00;;;;;;;;5041147;28;10028;-81
2021/05/12 03:15:15;;;;;;;;;0.00;0.00;;;;;;;;5033325;28;10124;-80
2021/05/12 03:17:42;;;;;;;;;0.50;0.50;;;;;;;;5044375;28;10197;-81
2021/05/12 03:20:13;;;;;;;;;0.00;0.00;;;;;;;;5037309;28;11051;-81
2021/05/12 03:22:41;;;;;;;;;1.00;1.00;;;;;;;;5033303;28;10287;-80
2021/05/12 03:25:09;;;;;;;;;0.00;0.00;;;;;;;;5044438;28;10294;-80
2021/05/12 03:27:36;;;;;;;;;0.00;0.00;;;;;;;;5036867;28;10196;-80
2021/05/12 03:30:04;;;;;;;;;0.50;0.00;;;;;;;;5045737;28;10356;-80
2021/05/12 03:32:31;;;;;;;;;1.00;1.00;;;;;;;;5035696;28;10350;-80
2021/05/12 03:34:58;;;;;;;;;0.00;0.00;;;;;;;;5039048;28;10298;-81
2021/05/12 03:37:25;;;;;;;;;1.00;1.00;;;;;;;;5029453;28;10330;-80
2021/05/12 03:39:53;;;;;;;;;0.25;0.25;;;;;;;;5044444;28;10312;-80
2021/05/12 03:42:20;;;;;;;;;0.75;0.75;;;;;;;;5038656;28;10469;-80
2021/05/12 03:44:47;;;;;;;;;1.00;1.00;;;;;;;;5043066;28;10434;-79
2021/05/12 03:47:14;;;;;;;;;0.75;0.75;;;;;;;;5039479;28;10653;-79
2021/05/12 03:49:40;;;;;;;;;3.00;1.75;;;;;;;;5054336;28;10431;-79
2021/05/12 03:52:10;;;;;;;;;1.25;1.25;;;;;;;;5064556;28;10567;-79
2021/05/12 03:54:37;;;;;;;;;3.75;0.75;;;;;;;;5047075;28;10552;-81
2021/05/12 03:57:09;;;;;;;;;4.00;1.00;;;;;;;;5055435;28;10572;-80
2021/05/12 03:59:36;;;;;;;;;2.50;1.00;;;;;;;;5059508;28;10790;-81
2021/05/12 04:02:03;;;;;;;;;1.00;1.00;;;;;;;;5058484;28;10568;-80
2021/05/12 04:04:29;;;;;;;;;0.50;0.50;;;;;;;;5074486;28;10537;-80
2021/05/12 04:06:56;;;;;;;;;1.00;1.00;;;;;;;;5063137;28;10554;-80
2021/05/12 04:09:23;;;;;;;;;1.50;1.00;;;;;;;;5048265;28;10624;-80
2021/05/12 04:11:50;;;;;;;;;1.00;1.00;;;;;;;;5063001;28;10603;-79
2021/05/12 04:14:18;;;;;;;;;1.75;1.75;;;;;;;;5036900;28;10528;-81
2021/05/12 04:16:47;;;;;;;;;2.75;1.00;;;;;;;;5064199;28;10461;-84
2021/05/12 04:19:14;;;;;;;;;1.75;1.00;;;;;;;;5065417;28;10571;-80
2021/05/12 04:21:41;;;;;;;;;3.00;1.75;;;;;;;;5063811;28;10466;-83
2021/05/12 04:24:08;;;;;;;;;2.50;1.00;;;;;;;;5058886;28;10364;-84
2021/05/12 04:26:35;;;;;;;;;2.00;1.75;;;;;;;;5064735;28;10426;-87
2021/05/12 04:29:02;;;;;;;;;2.25;1.75;;;;;;;;5062922;28;10294;-83
2021/05/12 04:31:30;;;;;;;;;3.50;1.25;;;;;;;;5034974;28;10252;-82
2021/05/12 04:33:57;;;;;;;;;3.00;0.00;;;;;;;;5058654;28;10330;-81
2021/05/12 04:36:24;;;;;;;;;1.00;1.00;;;;;;;;5058486;28;10948;-85
2021/05/12 04:38:51;;;;;;;;;1.75;1.00;;;;;;;;5034217;28;10307;-79
2021/05/12 04:41:18;;;;;;;;;1.00;1.00;;;;;;;;5057064;28;10141;-79
2021/05/12 04:43:45;;;;;;;;;0.75;0.75;;;;;;;;5062776;28;10019;-79
2021/05/12 04:46:12;;;;;;;;;1.00;1.00;;;;;;;;5065210;28;10052;-79
2021/05/12 04:48:40;;;;;;;;;0.75;0.75;;;;;;;;5063356;28;10157;-80
2021/05/12 04:51:07;;;;;;;;;1.00;1.00;;;;;;;;5064067;28;9988;-80
2021/05/12 04:53:34;;;;;;;;;3.50;1.00;;;;;;;;5063477;28;10230;-81
2021/05/12 04:56:00;;;;;;;;;3.00;3.00;;;;;;;;5060723;28;10021;-77
2021/05/12 04:58:27;;;;;;;;;0.75;0.75;;;;;;;;5042871;28;10186;-80
2021/05/12 05:00:54;;;;;;;;;6.25;1.00;;;;;;;;5062970;28;9877;-76
2021/05/12 05:03:21;;;;;;;;;4.50;2.50;;;;;;;;5064774;28;10089;-81
2021/05/12 05:05:49;;;;;;;;;2.25;2.25;;;;;;;;5060406;28;11162;-81
2021/05/12 05:08:16;;;;;;;;;1.00;1.00;;;;;;;;5058090;28;10120;-79
2021/05/12 05:10:43;;;;;;;;;1.25;1.00;;;;;;;;5065108;28;10077;-80
2021/05/12 05:13:10;;;;;;;;;2.25;2.25;;;;;;;;5063898;28;10099;-79
2021/05/12 05:15:37;;;;;;;;;3.00;1.00;;;;;;;;5064443;28;10338;-78
2021/05/12 05:18:04;;;;;;;;;2.50;1.00;;;;;;;;5028658;28;10345;-81
2021/05/12 05:20:32;;;;;;;;;2.00;1.00;;;;;;;;5070687;28;10525;-77
2021/05/12 05:23:00;;;;;;;;;3.00;1.75;;;;;;;;5053809;28;10342;-69
2021/05/12 05:25:28;;;;;;;;;2.00;1.00;;;;;;;;5055543;28;10533;-74
2021/05/12 05:27:55;;;;;;;;;1.00;1.00;;;;;;;;5054605;28;10403;-74
2021/05/12 05:30:21;;;;;;;;;1.75;1.00;;;;;;;;5053911;28;10427;-74
2021/05/12 05:32:48;;;;;;;;;1.50;1.50;;;;;;;;5052388;28;10342;-76
2021/05/12 05:35:15;;;;;;;;;2.50;1.00;;;;;;;;5049221;28;10241;-75
2021/05/12 05:37:42;;;;;;;;;1.00;1.00;;;;;;;;5062137;28;10262;-72
2021/05/12 05:40:12;;;;;;;;;4.00;2.25;;;;;;;;5050846;28;10289;-73
2021/05/12 05:42:39;;;;;;;;;2.25;1.50;;;;;;;;5055074;28;10263;-73
2021/05/12 05:45:08;;;;;;;;;1.00;1.00;;;;;;;;5054942;28;10457;-74
2021/05/12 05:47:35;;;;;;;;;1.75;1.75;;;;;;;;5054526;28;10373;-74
2021/05/12 05:50:02;;;;;;;;;3.75;3.00;;;;;;;;5062153;28;10339;-69
2021/05/12 05:52:29;;;;;;;;;4.75;2.25;;;;;;;;5061428;28;10538;-75
2021/05/12 05:54:56;;;;;;;;;5.50;3.75;;;;;;;;5063281;28;11150;-74
2021/05/12 05:57:23;;;;;;;;;2.00;2.00;;;;;;;;5060762;28;10506;-72
2021/05/12 05:59:50;;;;;;;;;3.25;3.25;;;;;;;;5062487;28;10457;-71
2021/05/12 06:02:17;;;;;;;;;2.00;2.00;;;;;;;;5059616;28;10378;-74
2021/05/12 06:04:44;;;;;;;;;4.50;3.50;;;;;;;;5063217;28;10356;-74
2021/05/12 06:07:10;;;;;;;;;6.50;4.00;;;;;;;;5062647;28;10468;-74
2021/05/12 06:09:37;;;;;;;;;7.00;5.50;;;;;;;;5062242;28;10541;-73
2021/05/12 06:12:04;;;;;;;;;3.50;2.50;;;;;;;;5059257;28;10447;-74
2021/05/12 06:14:32;;;;;;;;;6.50;3.00;;;;;;;;5060307;28;10251;-74
2021/05/12 06:16:59;;;;;;;;;4.00;4.00;;;;;;;;5062376;28;10290;-73
2021/05/12 06:19:26;;;;;;;;;2.00;2.00;;;;;;;;5061856;28;10325;-73
2021/05/12 06:21:54;;;;;;;;;5.00;2.50;;;;;;;;5059102;28;10386;-74
2021/05/12 06:24:21;;;;;;;;;4.00;4.00;;;;;;;;5061474;28;10262;-74
2021/05/12 06:26:50;;;;;;;;;3.00;3.00;;;;;;;;5044175;28;10498;-74
2021/05/12 06:29:18;;;;;;;;;5.25;2.50;;;;;;;;5061692;28;10697;-74
2021/05/12 06:31:45;;;;;;;;;2.00;2.00;;;;;;;;5042497;28;10207;-74
2021/05/12 06:34:12;;;;;;;;;3.50;2.50;;;;;;;;5060996;28;10325;-74
2021/05/12 06:36:39;;;;;;;;;2.00;2.00;;;;;;;;5060539;28;10258;-74
2021/05/12 06:39:07;;;;;;;;;2.25;1.50;;;;;;;;5062732;28;10262;-74
2021/05/12 06:41:37;;;;;;;;;3.25;3.25;;;;;;;;5043941;28;10213;-75
2021/05/12 06:44:05;;;;;;;;;4.00;4.00;;;;;;;;5061867;28;10206;-75
2021/05/12 06:46:32;;;;;;;;;3.00;3.00;;;;;;;;5061111;28;10281;-74
2021/05/12 06:49:01;;;;;;;;;3.75;3.75;;;;;;;;5061413;28;11107;-74
2021/05/12 06:51:28;;;;;;;;;2.25;2.25;;;;;;;;5062365;28;11040;-73
2021/05/12 06:53:55;;;;;;;;;6.50;4.00;;;;;;;;5061605;28;10220;-70
2021/05/12 06:56:21;;;;;;;;;5.75;4.00;;;;;;;;5062543;28;10892;-74
2021/05/12 06:58:48;;;;;;;;;6.00;2.00;;;;;;;;5060114;28;10236;-71
2021/05/12 07:01:15;;;;;;;;;3.25;2.00;;;;;;;;5060866;28;10189;-70
2021/05/12 07:03:42;;;;;;;;;3.75;3.50;;;;;;;;5063820;28;10024;-75
2021/05/12 07:06:11;;;;;;;;;4.75;3.25;;;;;;;;5061254;28;11007;-70
2021/05/12 07:08:38;;;;;;;;;6.75;4.00;;;;;;;;5061665;28;10316;-70
2021/05/12 07:11:05;;;;;;;;;4.00;3.50;;;;;;;;5061195;28;10292;-73
2021/05/12 07:13:32;;;;;;;;;2.25;2.25;;;;;;;;5061667;28;10117;-72
2021/05/12 07:16:00;;;;;;;;;2.50;2.50;;;;;;;;5042453;28;11000;-72
2021/05/12 07:18:27;;;;;;;;;6.50;4.00;;;;;;;;5062030;28;9970;-70
2021/05/12 07:20:54;;;;;;;;;3.50;3.50;;;;;;;;5056911;28;10047;-70
2021/05/12 07:23:24;;;;;;;;;3.25;3.25;;;;;;;;5053056;28;9858;-72
2021/05/12 07:25:51;;;;;;;;;3.00;3.00;;;;;;;;5059025;28;9908;-74
2021/05/12 07:28:19;;;;;;;;;2.50;1.25;;;;;;;;5056011;28;9706;-74
2021/05/12 07:30:46;;;;;;;;;2.25;2.25;;;;;;;;5059630;28;9582;-74
2021/05/12 07:33:13;;;;;;;;;3.00;3.00;;;;;;;;5057986;28;9786;-77
2021/05/12 07:35:40;;;;;;;;;3.00;3.00;;;;;;;;5043656;28;9731;-77
2021/05/12 07:38:07;;;;;;;;;1.25;1.25;;;;;;;;5063825;28;9621;-76
2021/05/12 07:40:36;;;;;;;;;3.00;3.00;;;;;;;;5060741;28;9801;-78
2021/05/12 07:43:06;;;;;;;;;4.00;2.00;;;;;;;;5063994;28;9685;-76
2021/05/12 07:45:33;;;;;;;;;1.00;1.00;;;;;;;;5063039;28;9668;-77
2021/05/12 07:48:00;;;;;;;;;2.00;2.00;;;;;;;;5057819;28;9480;-76
2021/05/12 07:50:27;;;;;;;;;1.25;1.25;;;;;;;;5041194;28;9561;-75
2021/05/12 07:52:53;;;;;;;;;5.50;3.00;;;;;;;;5065658;28;9478;-74
2021/05/12 07:55:20;;;;;;;;;4.25;3.00;;;;;;;;5061447;28;9471;-75
2021/05/12 07:57:48;;;;;;;;;1.00;1.00;;;;;;;;5063742;28;9581;-76
2021/05/12 08:00:17;;;;;;;;;3.00;3.00;;;;;;;;5064884;28;9274;-76
2021/05/12 08:02:44;;;;;;;;;5.00;4.67;;;;;;;;5061113;28;9405;-76
2021/05/12 08:05:12;;;;;;;;;2.00;2.00;;;;;;;;5063367;28;9322;-77
2021/05/12 08:07:39;;;;;;;;;2.00;2.00;;;;;;;;5064050;28;9528;-77
2021/05/12 08:10:07;;;;;;;;;2.00;2.00;;;;;;;;5064958;28;9190;-74
2021/05/12 08:12:34;;;;;;;;;3.00;3.00;;;;;;;;5056731;28;9216;-76
2021/05/12 08:15:03;;;;;;;;;3.67;3.67;;;;;;;;5062888;28;9292;-76
2021/05/12 08:17:30;;;;;;;;;4.00;4.00;;;;;;;;5058545;28;9257;-77
2021/05/12 08:19:59;;;;;;;;;5.33;2.00;;;;;;;;5060830;28;10006;-76
2021/05/12 08:22:26;;;;;;;;;3.75;3.75;;;;;;;;5061368;28;9090;-76
2021/05/12 08:24:53;;;;;;;;;5.00;3.00;;;;;;;;5055943;28;8894;-73
2021/05/12 08:27:20;;;;;;;;;4.00;2.50;;;;;;;;5058720;28;8872;-76
2021/05/12 08:29:47;;;;;;;;;5.00;2.00;;;;;;;;5060664;28;8884;-74
2021/05/12 08:32:16;;;;;;;;;2.50;2.00;;;;;;;;5044008;28;8961;-73
2021/05/12 08:34:43;;;;;;;;;4.75;3.00;;;;;;;;5058968;28;8846;-74
2021/05/12 08:37:11;;;;;;;;;2.25;1.75;;;;;;;;5061169;28;8949;-72
2021/05/12 08:39:38;;;;;;;;;4.00;3.00;;;;;;;;5055872;28;8927;-71
2021/05/12 08:42:05;;;;;;;;;1.00;1.00;;;;;;;;5062623;28;8994;-70
2021/05/12 08:44:34;;;;;;;;;2.00;2.00;;;;;;;;5057489;28;8954;-72
2021/05/12 08:47:02;;;;;;;;;3.50;1.50;;;;;;;;5061261;28;8849;-71
2021/05/12 08:49:32;;;;;;;;;6.25;4.00;;;;;;;;5060943;28;8957;-73
2021/05/12 08:51:59;;;;;;;;;2.50;2.00;;;;;;;;5061595;28;8868;-72
2021/05/12 08:54:26;;;;;;;;;2.50;2.00;;;;;;;;5041469;28;8850;-71
2021/05/12 08:56:53;;;;;;;;;1.75;1.75;;;;;;;;5044572;28;8878;-72
2021/05/12 08:59:23;;;;;;;;;3.25;2.00;;;;;;;;5057091;28;8880;-71
2021/05/12 09:01:50;;;;;;;;;3.25;3.25;;;;;;;;5024664;28;8948;-74
2021/05/12 09:04:17;;;;;;;;;3.75;3.50;;;;;;;;5059040;28;8892;-72
2021/05/12 09:06:45;;;;;;;;;2.00;2.00;;;;;;;;5057747;28;8880;-72
2021/05/12 09:09:14;;;;;;;;;4.00;2.75;;;;;;;;5066679;28;8893;-72
2021/05/12 09:11:41;;;;;;;;;4.75;3.00;;;;;;;;5059979;28;8880;-71
2021/05/12 09:14:26;;;;;;;;;3.25;3.25;;;;;;;;5061664;28;8848;-70
2021/05/12 09:16:54;;;;;;;;;2.75;2.75;;;;;;;;5057160;28;9007;-68
2021/05/12 09:19:24;;;;;;;;;1.00;1.00;;;;;;;;5061867;28;9634;-70
2021/05/12 09:21:52;;;;;;;;;2.00;2.00;;;;;;;;5056765;28;8975;-68
2021/05/12 09:24:28;;;;;;;;;3.50;2.25;;;;;;;;5057082;28;8864;-75
2021/05/12 09:26:57;;;;;;;;;4.00;3.00;;;;;;;;5054837;28;8842;-77
2021/05/12 09:29:29;;;;;;;;;2.75;2.75;;;;;;;;5058476;28;8829;-70
2021/05/12 09:32:05;;;;;;;;;4.50;2.50;;;;;;;;5061569;28;9652;-80
2021/05/12 09:34:51;;;;;;;;;3.75;3.75;;;;;;;;5058679;28;8866;-73
2021/05/12 09:37:27;;;;;;;;;4.75;3.00;;;;;;;;5061165;28;8867;-75
2021/05/12 09:39:54;;;;;;;;;4.00;4.00;;;;;;;;5063312;28;8861;-80
2021/05/12 09:42:22;;;;;;;;;3.50;3.00;;;;;;;;5062052;28;8877;-74
2021/05/12 09:45:09;;;;;;;;;4.75;4.75;;;;;;;;5062318;28;8884;-78
2021/05/12 09:47:36;;;;;;;;;4.75;4.00;;;;;;;;5055450;28;9476;-71
2021/05/12 09:50:09;;;;;;;;;3.50;3.00;;;;;;;;5044562;28;8898;-73
2021/05/12 09:52:37;;;;;;;;;4.25;4.00;;;;;;;;5057515;28;8891;-70
2021/05/12 09:55:06;;;;;;;;;3.50;3.00;;;;;;;;5055117;28;8849;-77
2021/05/12 09:57:33;;;;;;;;;4.00;4.00;;;;;;;;5059818;28;8883;-77
2021/05/12 10:00:00;;;;;;;;;4.75;3.00;;;;;;;;5056567;28;8860;-71
2021/05/12 10:02:27;;;;;;;;;6.00;2.75;;;;;;;;5062305;28;8793;-75
2021/05/12 10:05:00;;;;;;;;;4.00;4.00;;;;;;;;5056715;28;9724;-70
2021/05/12 10:07:28;;;;;;;;;3.00;3.00;;;;;;;;5057968;28;8868;-71
2021/05/12 10:09:57;;;;;;;;;3.00;3.00;;;;;;;;5058789;28;9008;-70
2021/05/12 10:12:25;;;;;;;;;1.50;1.00;;;;;;;;5062754;28;8887;-72
2021/05/12 10:14:55;;;;;;;;;8.50;6.50;;;;;;;;5059467;28;8848;-71
2021/05/12 10:17:22;;;;;;;;;2.75;2.75;;;;;;;;5059262;28;8862;-85
2021/05/12 10:19:51;;;;;;;;;2.50;2.50;;;;;;;;5061214;28;8876;-83
2021/05/12 10:22:20;;;;;;;;;2.25;2.25;;;;;;;;5060713;28;9012;-79
2021/05/12 10:24:48;;;;;;;;;2.50;2.50;;;;;;;;5065547;28;8884;-76
2021/05/12 10:27:18;;;;;;;;;0.50;0.50;;;;;;;;5055201;28;9791;-80
2021/05/12 10:29:49;;;;;;;;;2.75;2.00;;;;;;;;5059955;28;8888;-86
2021/05/12 10:32:24;;;;;;;;;4.00;3.00;;;;;;;;5069583;28;8836;-84
2021/05/12 10:35:00;;;;;;;;;4.00;2.50;;;;;;;;5062153;28;8876;-84
2021/05/12 10:37:29;;;;;;;;;2.25;2.25;;;;;;;;5060085;28;8970;-77
2021/05/12 10:40:02;;;;;;;;;4.00;3.00;;;;;;;;5061892;28;8887;-82
2021/05/12 10:42:46;;;;;;;;;3.00;3.00;;;;;;;;5064805;28;9412;-81
2021/05/12 10:45:19;;;;;;;;;3.50;2.00;;;;;;;;5064722;28;8860;-71
2021/05/12 10:47:47;;;;;;;;;3.25;2.00;;;;;;;;5059568;28;8851;-85
2021/05/12 10:50:13;;;;;;;;;7.00;3.75;;;;;;;;5044948;28;8892;-86
2021/05/12 10:53:20;;;;;;;;;4.00;2.00;;;;;;;;5063088;28;8872;-91
2021/05/12 10:56:06;;;;;;;;;2.00;2.00;;;;;;;;5041667;28;9022;-84
2021/05/12 10:58:39;;;;;;;;;4.75;2.00;;;;;;;;5052394;28;8884;-79
2021/05/12 11:01:07;;;;;;;;;2.00;2.00;;;;;;;;5063941;28;8874;-85
2021/05/12 11:04:14;;;;;;;;;1.75;1.75;;;;;;;;5055361;28;9586;-82
2021/05/12 11:07:07;;;;;;;;;2.25;2.25;;;;;;;;5051968;28;8854;-85
2021/05/12 11:09:47;;;;;;;;;2.00;2.00;;;;;;;;5059691;28;8856;-73
2021/05/12 11:12:25;;;;;;;;;3.00;1.00;;;;;;;;5054756;28;9712;-77
2021/05/12 11:15:02;;;;;;;;;2.00;2.00;;;;;;;;5057288;28;9488;-84
2021/05/12 11:17:46;;;;;;;;;2.75;2.00;;;;;;;;5059764;28;8864;-86
2021/05/12 11:20:21;;;;;;;;;2.00;2.00;;;;;;;;5063003;28;8868;-87
2021/05/12 11:22:50;;;;;;;;;4.25;3.00;;;;;;;;5060475;28;8872;-83
2021/05/12 11:25:24;;;;;;;;;4.50;3.00;;;;;;;;5047099;28;8878;-86
2021/05/12 11:33:58;;;;;;;;;2.25;2.25;;;;;;;;5064728;28;8951;-79
2021/05/12 11:36:32;;;;;;;;;3.50;2.00;;;;;;;;5052055;28;8848;-74
2021/05/12 11:38:58;;;;;;;;;3.50;3.00;;;;;;;;5064901;28;8867;-84
2021/05/12 11:41:26;;;;;;;;;5.75;3.00;;;;;;;;5062870;28;8876;-77
2021/05/12 11:43:55;;;;;;;;;4.75;2.00;;;;;;;;5066550;28;8986;-86
2021/05/12 11:46:25;;;;;;;;;4.00;2.00;;;;;;;;5065155;28;8853;-83
2021/05/12 11:48:54;;;;;;;;;1.25;1.25;;;;;;;;5059422;28;8906;-80
2021/05/12 11:51:33;;;;;;;;;2.25;2.25;;;;;;;;5063258;28;8847;-77
2021/05/12 11:54:02;;;;;;;;;3.00;3.00;;;;;;;;5057157;28;8908;-75
2021/05/12 11:56:30;;;;;;;;;3.50;3.25;;;;;;;;5053076;28;8926;-74
2021/05/12 11:58:59;;;;;;;;;2.00;2.00;;;;;;;;5061352;28;8864;-75
2021/05/12 12:01:29;;;;;;;;;3.25;2.00;;;;;;;;5055550;28;8828;-75
2021/05/12 12:04:06;;;;;;;;;3.00;3.00;;;;;;;;5063349;28;8853;-75
2021/05/12 12:06:39;;;;;;;;;3.75;2.75;;;;;;;;5051183;28;9677;-73
2021/05/12 12:09:06;;;;;;;;;1.50;1.50;;;;;;;;5027474;28;8891;-76
2021/05/12 12:11:34;;;;;;;;;2.00;1.50;;;;;;;;5063168;28;8914;-74
2021/05/12 12:14:02;;;;;;;;;2.00;2.00;;;;;;;;5060919;28;8891;-74
2021/05/12 12:16:32;;;;;;;;;2.50;2.50;;;;;;;;5058754;28;10043;-74
2021/05/12 12:19:08;;;;;;;;;2.00;2.00;;;;;;;;5041730;28;8856;-74
2021/05/12 12:21:35;;;;;;;;;2.50;2.50;;;;;;;;5060406;28;8856;-74
2021/05/12 12:24:11;;;;;;;;;3.00;1.75;;;;;;;;5064343;28;8876;-74
2021/05/12 12:26:41;;;;;;;;;3.20;1.00;;;;;;;;5060546;28;8943;-73
2021/05/12 12:29:08;;;;;;;;;3.00;1.80;;;;;;;;5059788;28;8938;-74
2021/05/12 12:31:38;;;;;;;;;2.80;2.80;;;;;;;;5053105;28;8858;-74
2021/05/12 12:34:10;;;;;;;;;1.00;1.00;;;;;;;;5051909;28;8921;-74
2021/05/12 12:37:03;;;;;;;;;3.60;1.40;;;;;;;;5056663;28;9670;-74
2021/05/12 12:39:43;;;;;;;;;3.80;3.00;;;;;;;;5048379;28;8902;-75
2021/05/12 12:42:11;;;;;;;;;3.00;1.80;;;;;;;;5071467;28;8890;-75
2021/05/12 12:44:40;;;;;;;;;3.80;1.20;;;;;;;;5056855;28;8867;-74
2021/05/12 12:47:14;;;;;;;;;2.25;2.25;;;;;;;;5051511;28;8880;-74
2021/05/12 12:49:46;;;;;;;;;2.00;1.00;;;;;;;;5063879;28;8872;-74
2021/05/12 12:52:15;;;;;;;;;1.50;1.00;;;;;;;;5056663;28;8904;-74
2021/05/12 12:57:35;;;;;;;;;3.00;2.75;;;;;;;;5052598;28;8884;-74
2021/05/12 13:00:06;;;;;;;;;3.75;3.00;;;;;;;;5058770;28;10558;-75
2021/05/12 13:02:35;;;;;;;;;2.50;1.25;;;;;;;;5059478;28;8925;-78
2021/05/12 13:05:13;;;;;;;;;2.25;2.00;;;;;;;;5040020;28;8846;-73
2021/05/12 13:07:40;;;;;;;;;2.00;2.00;;;;;;;;5053412;28;8870;-75
2021/05/12 13:10:26;;;;;;;;;1.00;1.00;;;;;;;;5063876;28;8872;-75
2021/05/12 13:12:53;;;;;;;;;1.75;1.75;;;;;;;;5054228;28;8900;-75
2021/05/12 13:15:26;;;;;;;;;1.25;1.25;;;;;;;;5053411;28;8864;-74
2021/05/12 13:17:55;;;;;;;;;2.25;2.00;;;;;;;;5054778;28;8856;-75
2021/05/12 13:20:22;;;;;;;;;2.00;2.00;;;;;;;;5054334;28;8925;-74
2021/05/12 13:23:07;;;;;;;;;3.00;3.00;;;;;;;;5027438;28;8854;-74
2021/05/12 13:25:35;;;;;;;;;1.50;1.50;;;;;;;;5049886;28;8856;-76
2021/05/12 13:28:06;;;;;;;;;2.50;1.75;;;;;;;;5055677;28;8864;-75
2021/05/12 13:30:33;;;;;;;;;3.00;1.00;;;;;;;;5053370;28;8843;-75
2021/05/12 13:33:01;;;;;;;;;3.00;1.25;;;;;;;;5059279;28;8872;-75
2021/05/12 13:35:28;;;;;;;;;3.00;3.00;;;;;;;;5039695;28;9727;-75
2021/05/12 13:37:55;;;;;;;;;1.00;1.00;;;;;;;;5056917;28;8898;-74
2021/05/12 13:40:22;;;;;;;;;2.00;2.00;;;;;;;;5061852;28;8894;-74
2021/05/12 13:42:49;;;;;;;;;3.00;3.00;;;;;;;;5058700;28;8872;-75
2021/05/12 13:45:16;;;;;;;;;3.25;1.75;;;;;;;;5040153;28;8860;-74
2021/05/12 13:47:43;;;;;;;;;2.25;1.00;;;;;;;;5063272;28;8856;-76
2021/05/12 13:50:14;;;;;;;;;2.00;1.00;;;;;;;;5057415;28;8848;-75
2021/05/12 13:52:49;;;;;;;;;1.75;1.75;;;;;;;;5053930;28;8917;-75
2021/05/12 13:55:21;;;;;;;;;1.75;1.50;;;;;;;;5055029;28;8986;-75
2021/05/12 14:00:48;;;;;;;;;3.00;0.75;;;;;;;;5059836;28;8792;-75
2021/05/12 14:03:15;;;;;;;;;1.00;1.00;;;;;;;;5053773;28;8902;-76
2021/05/12 14:05:43;;;;;;;;;2.00;2.00;;;;;;;;5049687;28;8896;-75
2021/05/12 14:08:09;;;;;;;;;1.50;1.00;;;;;;;;5054359;28;8853;-75
2021/05/12 14:10:37;;;;;;;;;1.50;1.50;;;;;;;;5047879;28;8885;-74
2021/05/12 14:13:12;;;;;;;;;3.50;2.00;;;;;;;;5054622;28;8974;-78
2021/05/12 14:18:37;;;;;;;;;2.00;2.00;;;;;;;;5056973;28;8882;-75
2021/05/12 14:21:06;;;;;;;;;1.75;1.75;;;;;;;;5059543;28;8985;-76
2021/05/12 14:23:33;;;;;;;;;1.00;1.00;;;;;;;;5053440;28;8923;-75
2021/05/12 14:26:01;;;;;;;;;1.50;1.00;;;;;;;;5052424;28;8890;-76
2021/05/12 14:28:36;;;;;;;;;0.25;0.25;;;;;;;;5037820;28;8844;-77
2021/05/12 14:31:03;;;;;;;;;1.00;1.00;;;;;;;;5035181;28;8919;-79
2021/05/12 14:33:30;;;;;;;;;1.00;1.00;;;;;;;;5056145;28;8902;-75
2021/05/12 14:35:57;;;;;;;;;3.00;1.75;;;;;;;;5035555;28;8865;-75
2021/05/12 14:38:26;;;;;;;;;2.00;1.25;;;;;;;;5032128;28;8882;-76
2021/05/12 14:40:53;;;;;;;;;1.25;1.25;;;;;;;;5055429;28;8869;-76
2021/05/12 14:43:20;;;;;;;;;1.00;1.00;;;;;;;;5046904;28;8866;-76
2021/05/12 14:45:47;;;;;;;;;2.50;0.75;;;;;;;;5051209;28;9454;-76
2021/05/12 14:48:22;;;;;;;;;1.00;1.00;;;;;;;;5032573;28;8880;-75
2021/05/12 14:50:50;;;;;;;;;0.50;0.50;;;;;;;;5064785;28;8915;-75
2021/05/12 14:53:19;;;;;;;;;2.00;2.00;;;;;;;;5055119;28;9297;-77
2021/05/12 14:56:05;;;;;;;;;1.00;1.00;;;;;;;;5054363;28;8864;-77
2021/05/12 14:58:48;;;;;;;;;1.00;1.00;;;;;;;;5051698;28;8849;-78
2021/05/12 15:04:04;;;;;;;;;0.00;0.00;;;;;;;;5036803;28;9153;-75
2021/05/12 15:06:34;;;;;;;;;0.75;0.75;;;;;;;;5052858;28;8890;-76
2021/05/12 15:09:02;;;;;;;;;1.50;0.00;;;;;;;;5062920;28;8955;-79
2021/05/12 15:11:30;;;;;;;;;2.00;0.50;;;;;;;;5052574;28;8967;-74
2021/05/12 15:13:57;;;;;;;;;1.00;1.00;;;;;;;;5051246;28;8884;-76
2021/05/12 15:16:24;;;;;;;;;1.75;0.75;;;;;;;;5058272;28;8888;-77
2021/05/12 15:18:51;;;;;;;;;1.00;1.00;;;;;;;;5035959;28;9272;-78